Time;durP1;ratioP1;P1;durP2;ratioP2;P2;SDS_P1;SDS_P2;PMS_P1;PMS_P2;Temp;Humidity;BMP_temperature;BMP_pressure;BME280_temperature;BME280_humidity;BME280_pressure;Samples;Min_cycle;Max_cycle;Signal;HPM_P1;HPM_P2
2023/04/08 00:03:31;;;;;;;10.65;7.78;;;;;;;;;;8299287;28;20153;-62
2023/04/08 00:07:31;;;;;;;10.77;7.63;;;;;;;;;;8299808;28;20638;-62
2023/04/08 00:11:31;;;;;;;12.00;8.30;;;;;;;;;;8305266;28;20061;-62
2023/04/08 00:15:31;;;;;;;11.13;7.95;;;;;;;;;;8304199;28;20071;-62
2023/04/08 00:19:32;;;;;;;11.57;7.93;;;;;;;;;;8303334;28;20034;-62
2023/04/08 00:23:32;;;;;;;12.23;8.45;;;;;;;;;;8302897;28;20013;-62
2023/04/08 00:27:32;;;;;;;11.25;8.05;;;;;;;;;;8304578;28;20786;-62
2023/04/08 00:31:32;;;;;;;12.23;8.55;;;;;;;;;;8302549;28;20537;-62
2023/04/08 00:35:33;;;;;;;12.60;8.90;;;;;;;;;;8305419;28;20561;-62
2023/04/08 00:39:33;;;;;;;13.90;9.27;;;;;;;;;;8302591;28;20021;-62
2023/04/08 00:43:33;;;;;;;13.85;10.05;;;;;;;;;;8302995;28;20017;-62
2023/04/08 00:47:34;;;;;;;13.60;9.55;;;;;;;;;;8301479;28;20044;-62
2023/04/08 00:51:37;;;;;;;13.65;9.70;;;;;;;;;;8303921;28;20036;-62
2023/04/08 00:55:38;;;;;;;16.02;9.27;;;;;;;;;;8303810;28;20359;-62
2023/04/08 00:59:38;;;;;;;14.35;9.48;;;;;;;;;;8302581;28;20029;-62
2023/04/08 01:03:48;;;;;;;14.60;10.57;;;;;;;;;;8303755;28;20030;-62
2023/04/08 01:07:49;;;;;;;13.80;10.07;;;;;;;;;;8301525;28;20112;-62
2023/04/08 01:11:51;;;;;;;14.27;10.23;;;;;;;;;;8303637;28;20144;-62
2023/04/08 01:15:52;;;;;;;14.68;9.93;;;;;;;;;;8301905;28;20044;-62
2023/04/08 01:19:53;;;;;;;14.43;10.70;;;;;;;;;;8300300;28;20405;-62
2023/04/08 01:23:58;;;;;;;19.02;10.77;;;;;;;;;;8302239;28;20067;-62
2023/04/08 01:28:11;;;;;;;14.27;10.15;;;;;;;;;;8301491;28;20054;-62
2023/04/08 01:32:12;;;;;;;14.73;10.25;;;;;;;;;;8300687;28;20128;-62
2023/04/08 01:36:13;;;;;;;13.18;9.68;;;;;;;;;;8285446;28;20021;-61
2023/04/08 01:40:13;;;;;;;15.48;11.10;;;;;;;;;;8302437;28;20058;-62
2023/04/08 01:44:15;;;;;;;16.38;10.70;;;;;;;;;;8300508;28;20125;-61
2023/04/08 01:48:15;;;;;;;16.48;10.65;;;;;;;;;;8302479;28;20232;-62
2023/04/08 01:52:17;;;;;;;15.65;10.35;;;;;;;;;;8300927;28;20756;-62
2023/04/08 01:56:20;;;;;;;15.00;10.65;;;;;;;;;;8301307;28;20024;-62
2023/04/08 02:00:24;;;;;;;14.57;11.20;;;;;;;;;;8299420;28;20462;-62
2023/04/08 02:04:24;;;;;;;13.57;10.00;;;;;;;;;;8300843;28;20020;-62
2023/04/08 02:08:25;;;;;;;14.23;9.43;;;;;;;;;;8301969;28;20458;-62
2023/04/08 02:12:25;;;;;;;14.32;10.00;;;;;;;;;;8302517;28;20040;-62
2023/04/08 02:16:29;;;;;;;15.00;9.65;;;;;;;;;;8302268;28;20053;-62
2023/04/08 02:20:36;;;;;;;16.05;9.90;;;;;;;;;;8299261;28;20098;-62
2023/04/08 02:24:37;;;;;;;13.38;9.85;;;;;;;;;;8299719;28;20065;-62
2023/04/08 02:28:38;;;;;;;14.30;9.05;;;;;;;;;;8300549;28;20128;-62
2023/04/08 02:32:38;;;;;;;12.52;9.90;;;;;;;;;;8299837;28;20100;-62
2023/04/08 02:36:39;;;;;;;13.85;9.25;;;;;;;;;;8301118;28;20308;-62
2023/04/08 02:40:40;;;;;;;13.73;9.20;;;;;;;;;;8299598;28;20057;-62
2023/04/08 02:44:40;;;;;;;14.20;10.25;;;;;;;;;;8300506;28;20021;-62
2023/04/08 02:48:40;;;;;;;13.48;9.55;;;;;;;;;;8301612;28;20048;-62
2023/04/08 02:52:42;;;;;;;16.23;10.23;;;;;;;;;;8296977;28;20124;-62
2023/04/08 02:56:43;;;;;;;13.80;9.70;;;;;;;;;;8295214;28;20099;-62
2023/04/08 03:00:43;;;;;;;14.02;9.80;;;;;;;;;;8295629;28;20127;-62
2023/04/08 03:04:43;;;;;;;14.55;10.18;;;;;;;;;;8298131;28;20838;-62
2023/04/08 03:08:43;;;;;;;17.63;10.20;;;;;;;;;;8294989;28;20025;-62
2023/04/08 03:12:43;;;;;;;12.75;9.38;;;;;;;;;;8280804;28;20028;-62
2023/04/08 03:16:43;;;;;;;13.27;8.95;;;;;;;;;;8297535;28;20033;-62
2023/04/08 03:20:44;;;;;;;14.20;9.40;;;;;;;;;;8297161;28;20028;-62
2023/04/08 03:24:44;;;;;;;14.10;9.95;;;;;;;;;;8296518;28;20025;-62
2023/04/08 03:28:44;;;;;;;12.70;8.75;;;;;;;;;;8296057;28;20071;-62
2023/04/08 03:32:44;;;;;;;13.80;10.00;;;;;;;;;;8297523;28;20924;-62
2023/04/08 03:36:45;;;;;;;12.57;9.33;;;;;;;;;;8296770;28;20302;-62
2023/04/08 03:40:45;;;;;;;13.48;9.23;;;;;;;;;;8297278;28;20283;-62
2023/04/08 03:44:45;;;;;;;14.38;9.43;;;;;;;;;;8296312;28;20029;-62
2023/04/08 03:48:45;;;;;;;14.82;10.15;;;;;;;;;;8295150;28;20467;-62
2023/04/08 03:52:45;;;;;;;18.70;12.43;;;;;;;;;;8296633;28;20553;-62
2023/04/08 03:56:45;;;;;;;18.08;11.95;;;;;;;;;;8296207;28;20086;-63
2023/04/08 04:00:46;;;;;;;19.98;11.00;;;;;;;;;;8297823;28;20045;-62
2023/04/08 04:04:46;;;;;;;14.35;10.30;;;;;;;;;;8298400;28;20036;-62
2023/04/08 04:08:46;;;;;;;13.35;9.77;;;;;;;;;;8298786;28;20156;-62
2023/04/08 04:12:48;;;;;;;12.90;9.40;;;;;;;;;;8296938;28;20739;-62
2023/04/08 04:16:48;;;;;;;15.20;10.50;;;;;;;;;;8298260;28;20042;-61
2023/04/08 04:20:48;;;;;;;14.70;10.05;;;;;;;;;;8297691;28;20026;-62
2023/04/08 04:24:49;;;;;;;13.32;9.88;;;;;;;;;;8278510;28;20144;-61
2023/04/08 04:28:49;;;;;;;15.53;10.30;;;;;;;;;;8300035;28;20789;-62
2023/04/08 04:32:49;;;;;;;12.77;9.05;;;;;;;;;;8295923;28;20037;-62
2023/04/08 04:36:49;;;;;;;12.68;9.43;;;;;;;;;;8296307;28;20025;-62
2023/04/08 04:40:50;;;;;;;14.40;9.48;;;;;;;;;;8295159;28;20080;-62
2023/04/08 04:44:50;;;;;;;12.77;9.13;;;;;;;;;;8298337;28;20132;-62
2023/04/08 04:48:50;;;;;;;14.25;9.93;;;;;;;;;;8297403;28;20033;-62
2023/04/08 04:52:50;;;;;;;14.93;10.60;;;;;;;;;;8296823;28;20431;-62
2023/04/08 04:56:50;;;;;;;14.38;10.73;;;;;;;;;;8300839;28;20033;-62
2023/04/08 05:00:51;;;;;;;15.52;10.52;;;;;;;;;;8302756;28;20783;-62
2023/04/08 05:04:52;;;;;;;15.40;10.50;;;;;;;;;;8305092;28;20028;-62
2023/04/08 05:08:52;;;;;;;15.93;11.30;;;;;;;;;;8301397;28;20029;-61
2023/04/08 05:12:52;;;;;;;14.20;10.20;;;;;;;;;;8304179;28;20029;-62
2023/04/08 05:16:53;;;;;;;15.25;10.23;;;;;;;;;;8301449;28;20117;-62
2023/04/08 05:20:53;;;;;;;13.98;9.95;;;;;;;;;;8303314;28;20148;-62
2023/04/08 05:24:53;;;;;;;15.27;10.63;;;;;;;;;;8302308;28;20025;-62
2023/04/08 05:28:53;;;;;;;14.98;10.93;;;;;;;;;;8300543;28;20034;-62
2023/04/08 05:32:53;;;;;;;16.13;11.57;;;;;;;;;;8302263;28;20041;-62
2023/04/08 05:36:53;;;;;;;15.30;10.57;;;;;;;;;;8301204;28;20133;-61
2023/04/08 05:40:54;;;;;;;17.65;11.60;;;;;;;;;;8302348;28;20029;-62
2023/04/08 05:44:54;;;;;;;18.88;11.77;;;;;;;;;;8300164;28;20029;-62
2023/04/08 05:48:54;;;;;;;16.70;11.85;;;;;;;;;;8300773;28;20064;-62
2023/04/08 05:52:55;;;;;;;16.63;11.32;;;;;;;;;;8294737;28;20482;-62
2023/04/08 05:56:55;;;;;;;17.15;12.23;;;;;;;;;;8301241;28;20017;-62
2023/04/08 06:00:55;;;;;;;18.00;11.60;;;;;;;;;;8299017;28;20033;-62
2023/04/08 06:04:55;;;;;;;17.77;11.82;;;;;;;;;;8298791;28;20164;-62
2023/04/08 06:08:55;;;;;;;17.33;11.23;;;;;;;;;;8299316;28;20112;-63
2023/04/08 06:12:56;;;;;;;16.13;11.43;;;;;;;;;;8300977;28;20815;-62
2023/04/08 06:16:56;;;;;;;15.25;11.68;;;;;;;;;;8299234;28;20056;-62
2023/04/08 06:20:58;;;;;;;17.73;12.10;;;;;;;;;;8299356;28;20040;-62
2023/04/08 06:24:58;;;;;;;16.92;11.90;;;;;;;;;;8300571;28;20090;-62
2023/04/08 06:28:59;;;;;;;14.77;10.35;;;;;;;;;;8299328;28;20144;-63
2023/04/08 06:32:59;;;;;;;14.52;11.13;;;;;;;;;;8298660;28;20059;-63
2023/04/08 06:36:59;;;;;;;13.00;10.70;;;;;;;;;;8297151;28;20086;-63
2023/04/08 06:41:06;;;;;;;13.73;10.87;;;;;;;;;;8299556;28;20029;-63
2023/04/08 06:45:07;;;;;;;13.45;11.23;;;;;;;;;;8299605;28;20791;-63
2023/04/08 06:49:07;;;;;;;14.05;10.52;;;;;;;;;;8298695;28;20566;-63
2023/04/08 06:53:07;;;;;;;14.85;11.52;;;;;;;;;;8299581;28;20067;-63
2023/04/08 06:57:07;;;;;;;11.98;10.23;;;;;;;;;;8297347;28;20045;-63
2023/04/08 07:01:08;;;;;;;13.43;11.18;;;;;;;;;;8298678;28;20536;-63
2023/04/08 07:05:08;;;;;;;14.23;11.13;;;;;;;;;;8300170;28;20139;-63
2023/04/08 07:09:08;;;;;;;15.30;11.27;;;;;;;;;;8299350;28;20028;-63
2023/04/08 07:13:08;;;;;;;13.32;10.95;;;;;;;;;;8296213;28;20284;-63
2023/04/08 07:17:08;;;;;;;12.85;10.32;;;;;;;;;;8295402;28;20064;-63
2023/04/08 07:21:09;;;;;;;13.05;10.52;;;;;;;;;;8298171;28;20028;-63
2023/04/08 07:25:09;;;;;;;13.57;11.07;;;;;;;;;;8298845;28;20025;-63
2023/04/08 07:29:10;;;;;;;13.95;11.15;;;;;;;;;;8299023;28;20777;-63
2023/04/08 07:33:10;;;;;;;12.55;10.45;;;;;;;;;;8300613;28;20086;-63
2023/04/08 07:37:10;;;;;;;13.80;11.23;;;;;;;;;;8297915;28;20017;-63
2023/04/08 07:41:10;;;;;;;11.60;10.40;;;;;;;;;;8298085;28;20025;-63
2023/04/08 07:45:11;;;;;;;12.95;10.38;;;;;;;;;;8296569;28;20086;-63
2023/04/08 07:49:11;;;;;;;12.15;10.65;;;;;;;;;;8299301;28;20063;-63
2023/04/08 07:53:12;;;;;;;16.02;10.10;;;;;;;;;;8299134;28;20033;-63
2023/04/08 07:57:12;;;;;;;11.43;10.23;;;;;;;;;;8298479;28;20021;-63
2023/04/08 08:01:17;;;;;;;11.27;10.18;;;;;;;;;;8295502;28;20041;-63
2023/04/08 08:05:17;;;;;;;12.27;10.40;;;;;;;;;;8296899;28;20066;-63
2023/04/08 08:09:18;;;;;;;11.23;10.05;;;;;;;;;;8296917;28;20083;-63
2023/04/08 08:13:20;;;;;;;12.43;10.65;;;;;;;;;;8294753;28;20024;-63
2023/04/08 08:17:21;;;;;;;14.23;11.18;;;;;;;;;;8293171;28;20033;-63
2023/04/08 08:21:21;;;;;;;11.80;10.60;;;;;;;;;;8294555;28;20029;-63
2023/04/08 08:25:21;;;;;;;13.63;10.98;;;;;;;;;;8294973;28;20379;-64
2023/04/08 08:29:21;;;;;;;12.30;11.00;;;;;;;;;;8297444;28;20035;-63
2023/04/08 08:33:22;;;;;;;12.88;11.45;;;;;;;;;;8293299;28;20086;-63
2023/04/08 08:37:22;;;;;;;11.27;9.97;;;;;;;;;;8291058;28;20970;-63
2023/04/08 08:41:22;;;;;;;11.57;10.27;;;;;;;;;;8292244;28;20410;-63
2023/04/08 08:45:22;;;;;;;11.48;10.27;;;;;;;;;;8293710;28;20189;-63
2023/04/08 08:49:23;;;;;;;12.13;10.70;;;;;;;;;;8289905;28;20119;-63
2023/04/08 08:53:28;;;;;;;12.70;10.60;;;;;;;;;;8290462;28;20040;-63
2023/04/08 08:57:28;;;;;;;13.45;11.57;;;;;;;;;;8294010;28;20113;-63
2023/04/08 09:01:29;;;;;;;14.32;11.27;;;;;;;;;;8291675;28;20037;-63
2023/04/08 09:05:29;;;;;;;12.27;10.95;;;;;;;;;;8289586;28;20032;-63
2023/04/08 09:09:46;;;;;;;16.02;11.95;;;;;;;;;;8291981;28;20029;-63
2023/04/08 09:13:46;;;;;;;15.00;12.52;;;;;;;;;;8293547;28;20611;-63
2023/04/08 09:17:46;;;;;;;16.38;13.05;;;;;;;;;;8301616;28;20798;-63
2023/04/08 09:22:03;;;;;;;13.88;11.68;;;;;;;;;;8297506;28;20026;-63
2023/04/08 09:26:07;;;;;;;13.95;11.07;;;;;;;;;;8299005;28;20033;-63
2023/04/08 09:30:14;;;;;;;14.52;11.68;;;;;;;;;;8299457;28;20469;-63
2023/04/08 09:34:16;;;;;;;16.80;12.70;;;;;;;;;;8289458;28;20013;-63
2023/04/08 09:38:16;;;;;;;13.57;11.82;;;;;;;;;;8287969;28;20034;-63
2023/04/08 09:42:18;;;;;;;15.40;12.10;;;;;;;;;;8293650;28;20033;-63
2023/04/08 09:46:24;;;;;;;13.82;12.05;;;;;;;;;;8298121;28;20033;-63
2023/04/08 09:50:30;;;;;;;14.68;11.98;;;;;;;;;;8300149;28;20631;-64
2023/04/08 09:54:36;;;;;;;13.93;11.52;;;;;;;;;;8293930;28;20110;-63
2023/04/08 09:58:58;;;;;;;16.45;12.85;;;;;;;;;;8288175;28;20481;-63
2023/04/08 10:03:07;;;;;;;15.23;11.90;;;;;;;;;;8289793;28;20038;-63
2023/04/08 10:07:08;;;;;;;12.77;11.23;;;;;;;;;;8290014;28;20454;-63
2023/04/08 10:11:08;;;;;;;14.50;12.65;;;;;;;;;;8287812;28;20025;-63
2023/04/08 10:15:27;;;;;;;14.43;10.77;;;;;;;;;;8286256;28;20545;-63
2023/04/08 10:19:39;;;;;;;13.85;10.63;;;;;;;;;;8290764;28;20354;-63
2023/04/08 10:23:56;;;;;;;13.75;10.98;;;;;;;;;;8290040;28;20242;-63
2023/04/08 10:27:57;;;;;;;12.30;9.85;;;;;;;;;;8287360;28;20022;-63
2023/04/08 10:31:57;;;;;;;13.20;10.50;;;;;;;;;;8276159;28;20486;-63
2023/04/08 10:36:08;;;;;;;13.57;10.60;;;;;;;;;;8279751;28;20032;-63
2023/04/08 10:40:18;;;;;;;12.85;10.85;;;;;;;;;;8286626;28;20423;-63
2023/04/08 10:44:21;;;;;;;11.73;10.30;;;;;;;;;;8283744;28;20033;-63
2023/04/08 10:48:23;;;;;;;;;;;;;;;;;;8286641;28;20103;-63
2023/04/08 10:52:26;;;;;;;12.75;10.02;;;;;;;;;;8285486;28;20494;-63
2023/04/08 10:56:27;;;;;;;13.57;11.13;;;;;;;;;;8282892;28;20020;-63
2023/04/08 11:00:34;;;;;;;12.43;10.75;;;;;;;;;;8288303;28;20108;-63
2023/04/08 11:04:40;;;;;;;14.05;10.65;;;;;;;;;;8289456;28;20504;-63
2023/04/08 11:08:40;;;;;;;13.10;10.70;;;;;;;;;;8288833;28;20029;-63
2023/04/08 11:12:40;;;;;;;15.60;11.50;;;;;;;;;;8288244;28;20776;-63
2023/04/08 11:16:41;;;;;;;14.25;10.73;;;;;;;;;;8292592;28;20033;-63
2023/04/08 11:20:43;;;;;;;15.98;11.35;;;;;;;;;;8290752;28;20046;-63
2023/04/08 11:24:44;;;;;;;11.75;10.43;;;;;;;;;;8277702;28;20116;-63
2023/04/08 11:28:44;;;;;;;13.55;9.75;;;;;;;;;;8282954;28;20052;-63
2023/04/08 11:32:45;;;;;;;8.90;8.00;;;;;;;;;;8288583;28;20131;-63
2023/04/08 11:36:45;;;;;;;8.80;7.78;;;;;;;;;;8282407;28;20040;-63
2023/04/08 11:40:53;;;;;;;8.68;7.70;;;;;;;;;;8286234;28;20060;-63
2023/04/08 11:44:53;;;;;;;9.70;7.13;;;;;;;;;;8285971;28;20434;-63
2023/04/08 11:48:57;;;;;;;9.33;7.87;;;;;;;;;;8285027;28;20357;-63
2023/04/08 11:52:58;;;;;;;10.10;7.30;;;;;;;;;;8286198;28;20135;-63
2023/04/08 11:56:58;;;;;;;11.20;8.73;;;;;;;;;;8288195;28;20063;-63
2023/04/08 12:00:59;;;;;;;8.43;6.70;;;;;;;;;;8288720;28;20176;-63
2023/04/08 12:05:00;;;;;;;13.40;8.93;;;;;;;;;;8294469;28;20167;-63
2023/04/08 12:09:00;;;;;;;13.13;8.63;;;;;;;;;;8311124;28;20031;-63
2023/04/08 12:13:00;;;;;;;17.52;12.15;;;;;;;;;;8301530;28;20107;-63
2023/04/08 12:17:00;;;;;;;14.30;11.35;;;;;;;;;;8295104;28;20091;-63
2023/04/08 12:21:00;;;;;;;10.93;7.80;;;;;;;;;;8295611;28;20071;-63
2023/04/08 12:25:03;;;;;;;7.38;5.95;;;;;;;;;;8297451;28;20040;-63
2023/04/08 12:29:03;;;;;;;7.87;6.57;;;;;;;;;;8299469;28;20025;-63
2023/04/08 12:33:04;;;;;;;8.77;6.90;;;;;;;;;;8298610;28;20045;-63
2023/04/08 12:37:04;;;;;;;9.18;8.07;;;;;;;;;;8297769;28;20678;-63
2023/04/08 12:41:05;;;;;;;8.18;7.15;;;;;;;;;;8298330;28;20021;-63
2023/04/08 12:45:07;;;;;;;10.38;7.22;;;;;;;;;;8300542;28;20037;-63
2023/04/08 12:49:07;;;;;;;10.98;7.55;;;;;;;;;;8300494;28;20021;-63
2023/04/08 12:53:08;;;;;;;10.13;8.63;;;;;;;;;;8307876;28;20048;-63
2023/04/08 12:57:08;;;;;;;10.67;8.80;;;;;;;;;;8300416;28;20075;-63
2023/04/08 13:01:08;;;;;;;8.98;7.60;;;;;;;;;;8297038;28;20481;-63
2023/04/08 13:05:09;;;;;;;10.45;8.35;;;;;;;;;;8297852;28;20448;-63
2023/04/08 13:09:10;;;;;;;10.60;7.95;;;;;;;;;;8297023;28;20310;-63
2023/04/08 13:13:13;;;;;;;10.57;7.22;;;;;;;;;;8297478;28;20829;-63
2023/04/08 13:17:13;;;;;;;13.68;8.80;;;;;;;;;;8292055;28;20045;-63
2023/04/08 13:21:13;;;;;;;8.38;7.03;;;;;;;;;;8294762;28;20896;-63
2023/04/08 13:25:13;;;;;;;8.13;7.13;;;;;;;;;;8295113;28;20552;-63
2023/04/08 13:29:13;;;;;;;10.07;8.98;;;;;;;;;;8297056;28;20029;-63
2023/04/08 13:33:13;;;;;;;12.07;9.00;;;;;;;;;;8301225;28;20041;-64
2023/04/08 13:37:14;;;;;;;10.23;7.90;;;;;;;;;;8298340;28;20032;-63
2023/04/08 13:41:14;;;;;;;8.05;6.90;;;;;;;;;;8297957;28;20609;-64
2023/04/08 13:45:14;;;;;;;7.63;6.30;;;;;;;;;;8295885;28;20021;-63
2023/04/08 13:49:15;;;;;;;6.55;5.80;;;;;;;;;;8290227;28;20039;-63
2023/04/08 13:53:15;;;;;;;7.65;6.15;;;;;;;;;;8291188;28;20541;-63
2023/04/08 13:57:15;;;;;;;7.18;6.28;;;;;;;;;;8294170;28;20030;-63
2023/04/08 14:01:16;;;;;;;8.55;7.00;;;;;;;;;;8290014;28;20138;-63
2023/04/08 14:05:16;;;;;;;7.35;5.90;;;;;;;;;;8288389;28;20596;-63
2023/04/08 14:09:16;;;;;;;7.00;5.63;;;;;;;;;;8288328;28;20217;-63
2023/04/08 14:13:16;;;;;;;6.07;5.47;;;;;;;;;;8291129;28;20418;-63
2023/04/08 14:17:17;;;;;;;7.25;5.43;;;;;;;;;;8284049;28;20454;-63
2023/04/08 14:21:17;;;;;;;6.25;5.20;;;;;;;;;;8289243;28;20573;-63
2023/04/08 14:25:17;;;;;;;5.57;4.75;;;;;;;;;;8288937;28;20320;-63
2023/04/08 14:29:18;;;;;;;7.83;4.87;;;;;;;;;;8287408;28;20067;-63
2023/04/08 14:33:18;;;;;;;7.07;5.78;;;;;;;;;;8290896;28;21243;-64
2023/04/08 14:37:18;;;;;;;7.30;5.95;;;;;;;;;;8288133;28;20029;-63
2023/04/08 14:41:18;;;;;;;7.68;5.85;;;;;;;;;;8289322;28;20029;-63
2023/04/08 14:45:19;;;;;;;8.18;5.53;;;;;;;;;;8291909;28;20020;-63
2023/04/08 14:49:19;;;;;;;8.75;6.10;;;;;;;;;;8297169;28;20708;-63
2023/04/08 14:53:19;;;;;;;5.97;5.10;;;;;;;;;;8291159;28;20017;-63
2023/04/08 14:57:20;;;;;;;6.00;4.73;;;;;;;;;;8287509;28;20017;-63
2023/04/08 15:01:20;;;;;;;5.88;5.00;;;;;;;;;;8293784;28;20291;-63
2023/04/08 15:05:20;;;;;;;7.00;5.63;;;;;;;;;;8290819;28;20029;-63
2023/04/08 15:09:21;;;;;;;6.27;5.13;;;;;;;;;;8289844;28;20024;-63
2023/04/08 15:13:22;;;;;;;6.22;5.32;;;;;;;;;;8298616;28;20279;-64
2023/04/08 15:17:22;;;;;;;5.57;4.80;;;;;;;;;;8294184;28;20101;-63
2023/04/08 15:21:22;;;;;;;6.28;5.15;;;;;;;;;;8296895;28;20025;-63
2023/04/08 15:25:22;;;;;;;5.65;4.93;;;;;;;;;;8288855;28;20029;-63
2023/04/08 15:29:23;;;;;;;7.22;5.18;;;;;;;;;;8290288;28;20033;-63
2023/04/08 15:33:23;;;;;;;6.35;4.35;;;;;;;;;;8289746;28;20474;-63
2023/04/08 15:37:24;;;;;;;6.15;4.82;;;;;;;;;;8289931;28;20052;-62
2023/04/08 15:41:25;;;;;;;5.47;4.47;;;;;;;;;;8296532;28;20025;-62
2023/04/08 15:45:25;;;;;;;4.85;4.30;;;;;;;;;;8291536;28;20068;-63
2023/04/08 15:49:25;;;;;;;6.00;4.80;;;;;;;;;;8287626;28;20025;-62
2023/04/08 15:53:25;;;;;;;8.95;4.63;;;;;;;;;;8287835;28;20533;-62
2023/04/08 15:57:26;;;;;;;7.03;4.40;;;;;;;;;;8287243;28;20245;-62
2023/04/08 16:01:26;;;;;;;6.30;4.03;;;;;;;;;;8285434;28;20164;-62
2023/04/08 16:05:26;;;;;;;4.65;4.10;;;;;;;;;;8288748;28;20052;-63
2023/04/08 16:09:26;;;;;;;4.80;4.35;;;;;;;;;;8287657;28;20491;-62
2023/04/08 16:13:28;;;;;;;5.72;4.28;;;;;;;;;;8294784;28;20113;-62
2023/04/08 16:17:28;;;;;;;5.07;4.30;;;;;;;;;;8292898;28;20045;-63
2023/04/08 16:21:29;;;;;;;4.70;4.30;;;;;;;;;;8293203;28;20610;-62
2023/04/08 16:25:30;;;;;;;4.28;3.78;;;;;;;;;;8295345;28;20055;-62
2023/04/08 16:29:30;;;;;;;7.30;4.60;;;;;;;;;;8295893;28;20025;-62
2023/04/08 16:33:30;;;;;;;5.13;4.45;;;;;;;;;;8296793;28;20068;-62
2023/04/08 16:37:31;;;;;;;4.18;3.78;;;;;;;;;;8295011;28;20413;-62
2023/04/08 16:41:31;;;;;;;7.30;5.20;;;;;;;;;;8298685;28;20032;-62
2023/04/08 16:45:32;;;;;;;10.30;6.75;;;;;;;;;;8294447;28;20329;-62
2023/04/08 16:49:32;;;;;;;9.13;7.05;;;;;;;;;;8289217;28;20334;-62
2023/04/08 16:53:32;;;;;;;7.30;6.07;;;;;;;;;;8290430;28;20103;-62
2023/04/08 16:57:32;;;;;;;5.77;4.67;;;;;;;;;;8290427;28;20017;-63
2023/04/08 17:01:32;;;;;;;5.75;4.25;;;;;;;;;;8300570;28;20276;-62
2023/04/08 17:05:33;;;;;;;6.00;4.15;;;;;;;;;;8298349;28;20059;-62
2023/04/08 17:09:33;;;;;;;7.45;4.90;;;;;;;;;;8296657;28;20144;-62
2023/04/08 17:13:33;;;;;;;5.37;4.87;;;;;;;;;;8291918;28;20534;-62
2023/04/08 17:17:33;;;;;;;6.32;4.90;;;;;;;;;;8293807;28;20361;-62
2023/04/08 17:21:34;;;;;;;6.05;4.68;;;;;;;;;;8300571;28;20026;-62
2023/04/08 17:25:34;;;;;;;6.28;5.00;;;;;;;;;;8303678;28;20052;-62
2023/04/08 17:29:34;;;;;;;5.30;4.80;;;;;;;;;;8301906;28;20021;-62
2023/04/08 17:33:34;;;;;;;6.22;4.80;;;;;;;;;;8298720;28;20114;-62
2023/04/08 17:37:35;;;;;;;7.07;5.28;;;;;;;;;;8301880;28;20049;-63
2023/04/08 17:41:35;;;;;;;5.32;4.60;;;;;;;;;;8301307;28;20111;-62
2023/04/08 17:45:36;;;;;;;7.00;4.95;;;;;;;;;;8302197;28;20735;-63
2023/04/08 17:49:36;;;;;;;6.20;4.32;;;;;;;;;;8301801;28;20066;-62
2023/04/08 17:53:36;;;;;;;4.70;4.20;;;;;;;;;;8301006;28;20017;-62
2023/04/08 17:57:37;;;;;;;4.93;4.35;;;;;;;;;;8303123;28;20029;-62
2023/04/08 18:01:38;;;;;;;6.57;5.57;;;;;;;;;;8290157;28;20036;-62
2023/04/08 18:05:38;;;;;;;8.30;5.53;;;;;;;;;;8301327;28;20107;-62
2023/04/08 18:09:39;;;;;;;6.53;4.30;;;;;;;;;;8299382;28;20286;-62
2023/04/08 18:13:39;;;;;;;7.22;5.15;;;;;;;;;;8286085;28;20021;-62
2023/04/08 18:17:40;;;;;;;5.85;5.07;;;;;;;;;;8300392;28;20294;-62
2023/04/08 18:21:40;;;;;;;5.30;4.45;;;;;;;;;;8297968;28;20021;-62
2023/04/08 18:25:43;;;;;;;5.25;4.32;;;;;;;;;;8298794;28;20031;-62
2023/04/08 18:29:43;;;;;;;4.47;4.05;;;;;;;;;;8294950;28;20033;-62
2023/04/08 18:33:43;;;;;;;5.65;4.40;;;;;;;;;;8285829;28;20480;-62
2023/04/08 18:37:43;;;;;;;6.20;4.88;;;;;;;;;;8290776;28;20197;-62
2023/04/08 18:41:44;;;;;;;4.95;4.28;;;;;;;;;;8294379;28;20119;-63
2023/04/08 18:45:44;;;;;;;5.57;4.72;;;;;;;;;;8286714;28;20614;-62
2023/04/08 18:49:45;;;;;;;6.78;5.20;;;;;;;;;;8291789;28;20086;-62
2023/04/08 18:53:45;;;;;;;6.28;4.85;;;;;;;;;;8297743;28;20156;-62
2023/04/08 18:57:45;;;;;;;5.28;4.75;;;;;;;;;;8293810;28;20021;-62
2023/04/08 19:01:46;;;;;;;6.18;4.93;;;;;;;;;;8289328;28;20040;-62
2023/04/08 19:05:46;;;;;;;6.30;5.28;;;;;;;;;;8287775;28;20029;-62
2023/04/08 19:09:46;;;;;;;6.22;5.60;;;;;;;;;;8288248;28;20029;-62
2023/04/08 19:13:47;;;;;;;6.93;5.85;;;;;;;;;;8287632;28;20029;-61
2023/04/08 19:17:47;;;;;;;8.40;6.80;;;;;;;;;;8291424;28;20414;-62
2023/04/08 19:21:47;;;;;;;8.48;6.25;;;;;;;;;;8288732;28;20091;-62
2023/04/08 19:25:47;;;;;;;8.38;6.57;;;;;;;;;;8284538;28;20548;-62
2023/04/08 19:29:48;;;;;;;7.95;6.20;;;;;;;;;;8283967;28;20040;-62
2023/04/08 19:33:48;;;;;;;9.60;7.00;;;;;;;;;;8288038;28;20046;-62
2023/04/08 19:37:48;;;;;;;8.68;6.70;;;;;;;;;;8281595;28;20373;-62
2023/04/08 19:41:49;;;;;;;10.55;7.90;;;;;;;;;;8283135;28;20271;-62
2023/04/08 19:45:53;;;;;;;8.50;6.95;;;;;;;;;;8283967;28;20099;-62
2023/04/08 19:49:53;;;;;;;9.25;7.13;;;;;;;;;;8285708;28;20043;-62
2023/04/08 19:53:53;;;;;;;10.98;7.57;;;;;;;;;;8284300;28;20029;-62
2023/04/08 19:57:54;;;;;;;9.90;7.03;;;;;;;;;;8288253;28;20148;-62
2023/04/08 20:01:54;;;;;;;9.57;7.25;;;;;;;;;;8294556;28;20329;-62
2023/04/08 20:05:55;;;;;;;9.65;6.75;;;;;;;;;;8287513;28;20025;-62
2023/04/08 20:09:55;;;;;;;9.57;6.78;;;;;;;;;;8266671;28;20149;-62
2023/04/08 20:13:55;;;;;;;9.37;6.63;;;;;;;;;;8285334;28;20337;-62
2023/04/08 20:17:55;;;;;;;7.07;6.15;;;;;;;;;;8285886;28;20149;-62
2023/04/08 20:21:56;;;;;;;8.55;6.55;;;;;;;;;;8292208;28;20053;-62
2023/04/08 20:25:56;;;;;;;9.05;6.65;;;;;;;;;;8295655;28;20103;-62
2023/04/08 20:29:57;;;;;;;11.25;7.30;;;;;;;;;;8289139;28;20037;-62
2023/04/08 20:33:57;;;;;;;7.82;6.32;;;;;;;;;;8292230;28;20045;-62
2023/04/08 20:37:58;;;;;;;7.20;5.63;;;;;;;;;;8288375;28;20037;-62
2023/04/08 20:41:58;;;;;;;7.25;5.20;;;;;;;;;;8291327;28;20138;-62
2023/04/08 20:45:58;;;;;;;8.83;5.67;;;;;;;;;;8295296;28;20046;-62
2023/04/08 20:49:58;;;;;;;6.15;5.22;;;;;;;;;;8290369;28;20275;-62
2023/04/08 20:53:58;;;;;;;6.07;4.45;;;;;;;;;;8299610;28;20107;-62
2023/04/08 20:58:04;;;;;;;6.88;4.55;;;;;;;;;;8303790;28;20029;-62
2023/04/08 21:02:04;;;;;;;5.32;4.22;;;;;;;;;;8295833;28;20094;-62
2023/04/08 21:06:05;;;;;;;4.50;3.65;;;;;;;;;;8296914;28;20085;-62
2023/04/08 21:10:05;;;;;;;4.72;4.00;;;;;;;;;;8300598;28;20477;-62
2023/04/08 21:14:05;;;;;;;3.90;3.35;;;;;;;;;;8300331;28;20135;-62
2023/04/08 21:18:06;;;;;;;4.28;3.78;;;;;;;;;;8297873;28;20029;-62
2023/04/08 21:22:06;;;;;;;4.07;3.55;;;;;;;;;;8297780;28;20021;-62
2023/04/08 21:26:10;;;;;;;6.93;4.15;;;;;;;;;;8303377;28;20088;-62
2023/04/08 21:30:11;;;;;;;4.38;3.72;;;;;;;;;;8292065;28;20052;-62
2023/04/08 21:34:12;;;;;;;5.03;3.70;;;;;;;;;;8292314;28;20025;-62
2023/04/08 21:38:12;;;;;;;3.80;3.45;;;;;;;;;;8291610;28;20268;-62
2023/04/08 21:42:12;;;;;;;4.25;3.85;;;;;;;;;;8291396;28;20717;-61
2023/04/08 21:46:12;;;;;;;4.45;3.75;;;;;;;;;;8292669;28;20040;-62
2023/04/08 21:50:12;;;;;;;4.40;4.00;;;;;;;;;;8293105;28;20083;-62
2023/04/08 21:54:13;;;;;;;4.00;3.60;;;;;;;;;;8290854;28;20025;-62
2023/04/08 21:58:13;;;;;;;3.80;3.40;;;;;;;;;;8292997;28;20024;-62
2023/04/08 22:02:13;;;;;;;4.78;3.95;;;;;;;;;;8291592;28;20076;-62
2023/04/08 22:06:13;;;;;;;4.18;3.70;;;;;;;;;;8291152;28;20033;-62
2023/04/08 22:10:14;;;;;;;5.13;3.63;;;;;;;;;;8289367;28;20029;-62
2023/04/08 22:14:16;;;;;;;3.45;3.15;;;;;;;;;;8298325;28;20294;-62
2023/04/08 22:18:16;;;;;;;4.28;3.63;;;;;;;;;;8299746;28;20029;-62
2023/04/08 22:22:16;;;;;;;5.85;3.38;;;;;;;;;;8302207;28;20086;-62
2023/04/08 22:26:16;;;;;;;4.77;3.50;;;;;;;;;;8300298;28;20071;-62
2023/04/08 22:30:16;;;;;;;4.43;3.50;;;;;;;;;;8300094;28;20287;-61
2023/04/08 22:34:17;;;;;;;5.90;4.07;;;;;;;;;;8302476;28;20095;-62
2023/04/08 22:38:17;;;;;;;4.68;4.10;;;;;;;;;;8302123;28;20060;-62
2023/04/08 22:42:17;;;;;;;4.80;3.85;;;;;;;;;;8300602;28;20027;-61
2023/04/08 22:46:18;;;;;;;4.93;4.43;;;;;;;;;;8299725;28;20033;-62
2023/04/08 22:50:18;;;;;;;4.85;4.05;;;;;;;;;;8298648;28;20378;-61
2023/04/08 22:54:19;;;;;;;5.78;3.80;;;;;;;;;;8300259;28;20032;-62
2023/04/08 22:58:19;;;;;;;4.80;4.00;;;;;;;;;;8299602;28;20842;-62
2023/04/08 23:02:19;;;;;;;4.53;3.45;;;;;;;;;;8302277;28;20045;-62
2023/04/08 23:06:20;;;;;;;4.78;3.88;;;;;;;;;;8299544;28;20051;-62
2023/04/08 23:10:20;;;;;;;4.80;4.05;;;;;;;;;;8300216;28;20053;-62
2023/04/08 23:14:20;;;;;;;4.70;4.00;;;;;;;;;;8299685;28;20016;-62
2023/04/08 23:18:20;;;;;;;5.95;4.40;;;;;;;;;;8298647;28;20868;-62
2023/04/08 23:22:20;;;;;;;6.22;4.57;;;;;;;;;;8288431;28;20785;-61
2023/04/08 23:26:20;;;;;;;7.47;4.57;;;;;;;;;;8286635;28;20619;-61
2023/04/08 23:30:21;;;;;;;5.28;4.38;;;;;;;;;;8286793;28;20152;-62
2023/04/08 23:34:21;;;;;;;5.88;4.40;;;;;;;;;;8272732;28;20029;-62
2023/04/08 23:38:21;;;;;;;6.50;4.60;;;;;;;;;;8296052;28;20029;-62
2023/04/08 23:42:25;;;;;;;5.45;4.53;;;;;;;;;;8298797;28;20113;-62
2023/04/08 23:46:25;;;;;;;;;;;;;;;;;;8297848;28;20041;-62